Sjobris — SLXP — position and weather

sailwx.info

Track history (hours):
 
Tides and Currents Weather Stations Pressure Air Temp Water Temp Dewpoint Dewpoint Depression Visibility Wind Speed Wind Dir Waves Ship Positions

Sjobris

Last reported at 2015-Jul-04 06:25 UTC. Time now 2015-Jul-04 15:18 UTC.
Position N 59°20' E 018°05'.

Length 38 m.

Type: Passenger vessel. MMSI: 265522700.

Date/timePositionNaut miles runAvg speedWind from/ knotsBaromVisibWave heightAir tempDewpointWater temp
2015-Jul-04 06:25N 59°20' E 018°05'0 0.0
2015-Jul-04 05:33N 59°20' E 018°05'0 0.0
2015-Jul-04 04:33N 59°20' E 018°05'0 0.0
2015-Jul-04 03:32N 59°20' E 018°05'0 0.0
2015-Jul-04 02:33N 59°20' E 018°05'0 0.0
2015-Jul-04 01:33N 59°20' E 018°05'0 0.0
2015-Jul-04 00:21N 59°20' E 018°05'0 0.0
2015-Jul-03 23:33N 59°20' E 018°05'0 0.0
2015-Jul-03 22:30N 59°20' E 018°05'0 0.0
2015-Jul-03 21:33N 59°20' E 018°05'0 0.0
2015-Jul-03 20:33N 59°20' E 018°05'0 0.0
2015-Jul-03 19:33N 59°20' E 018°05'0 0.4
2015-Jul-03 18:31N 59°19' E 018°05'1 0.1
2015-Jul-03 08:09N 59°19' E 018°07'1 1.9
2015-Jul-03 07:33N 59°20' E 018°05'1 0.1
2015-Jul-02 16:26N 59°19' E 018°07'2 2.6
2015-Jul-02 15:33N 59°20' E 018°11'3 0.4
2015-Jul-02 06:33N 59°20' E 018°05'0 0.0
2015-Jul-02 05:33N 59°20' E 018°05'0 0.0
2015-Jul-02 04:33N 59°20' E 018°05'0 0.0
2015-Jul-02 03:33N 59°20' E 018°05'0 0.0
2015-Jul-02 02:33N 59°20' E 018°05'0 0.0
2015-Jul-02 01:33N 59°20' E 018°05'0 0.0
2015-Jul-02 00:33N 59°20' E 018°05'0 0.0
2015-Jul-01 23:33N 59°20' E 018°05'0 0.0
2015-Jul-01 22:33N 59°20' E 018°05'0 0.0
2015-Jul-01 21:29N 59°20' E 018°05'0 0.0
2015-Jul-01 20:33N 59°20' E 018°05'0 0.0
2015-Jul-01 19:33N 59°20' E 018°05'0 0.4
2015-Jul-01 18:32N 59°19' E 018°05'1 0.1
2015-Jul-01 08:10N 59°19' E 018°07'1 1.3
2015-Jul-01 07:28N 59°19' E 018°05'2 0.1
2015-Jun-30 16:29N 59°19' E 018°09'2 1.7
2015-Jun-30 15:34N 59°19' E 018°05'0 0.0
2015-Jun-30 06:33N 59°20' E 018°05'0 0.5
2015-Jun-30 05:33N 59°20' E 018°05'0 0.0
2015-Jun-30 04:33N 59°20' E 018°05'0 0.0
2015-Jun-30 03:34N 59°20' E 018°05'0 0.0
2015-Jun-30 02:33N 59°20' E 018°05'0 0.0
2015-Jun-30 01:33N 59°20' E 018°05'0 0.0
2015-Jun-30 00:33N 59°20' E 018°05'0 0.0
2015-Jun-29 23:33N 59°20' E 018°05'0 0.0
2015-Jun-29 22:33N 59°20' E 018°05'0 0.0
2015-Jun-29 21:33N 59°20' E 018°05'0 0.0
2015-Jun-29 20:33N 59°20' E 018°05'0 0.0
2015-Jun-29 19:33N 59°20' E 018°05'1 0.5
2015-Jun-29 18:33N 59°19' E 018°05'1 0.1
2015-Jun-29 08:11N 59°19' E 018°07'1 1.7
2015-Jun-29 07:30N 59°19' E 018°05'0 0.0
2015-Jun-28 18:34N 59°20' E 018°05'0 0.0
2015-Jun-28 06:33N 59°20' E 018°05'0 0.0
2015-Jun-28 05:33N 59°20' E 018°05'0 0.0
2015-Jun-28 04:33N 59°20' E 018°05'0 0.0
2015-Jun-28 03:33N 59°20' E 018°05'0 0.0
2015-Jun-28 02:33N 59°20' E 018°05'0 0.0
2015-Jun-28 01:33N 59°20' E 018°05'0 0.0
2015-Jun-28 00:33N 59°20' E 018°05'0 0.0
2015-Jun-27 23:33N 59°20' E 018°05'0 0.0
2015-Jun-27 22:33N 59°20' E 018°05'0 0.0
2015-Jun-27 21:33N 59°20' E 018°05'0 0.0
2015-Jun-27 20:33N 59°20' E 018°05'0 0.0
2015-Jun-27 19:33N 59°20' E 018°05'0 0.0
2015-Jun-27 18:33N 59°20' E 018°05'0 0.0
2015-Jun-27 06:33N 59°20' E 018°05'0 0.0
2015-Jun-27 05:33N 59°20' E 018°05'0 0.0
2015-Jun-27 04:33N 59°20' E 018°05'0 0.0
2015-Jun-27 03:33N 59°20' E 018°05'0 0.0
2015-Jun-27 02:33N 59°20' E 018°05'0 0.0
2015-Jun-27 01:33N 59°20' E 018°05'0 0.0
2015-Jun-27 00:33N 59°20' E 018°05'0 0.0
2015-Jun-26 23:33N 59°20' E 018°05'0 0.0
2015-Jun-26 22:33N 59°20' E 018°05'0 0.0
2015-Jun-26 21:33N 59°20' E 018°05'0 0.0
2015-Jun-26 20:33N 59°20' E 018°05'0 0.0
2015-Jun-26 19:33N 59°20' E 018°05'0 0.0
2015-Jun-26 18:33N 59°20' E 018°05'1 0.1
2015-Jun-26 08:10N 59°19' E 018°07'1 2.2
2015-Jun-26 07:34N 59°20' E 018°04'2 0.1
2015-Jun-25 16:26N 59°19' E 018°07'1 1.5
2015-Jun-25 15:33N 59°19' E 018°05'3 0.4
2015-Jun-25 07:07N 59°20' E 018°11'3 5.9
2015-Jun-25 06:34N 59°20' E 018°05'0 0.0
2015-Jun-25 05:33N 59°20' E 018°05'0 0.0
2015-Jun-25 04:34N 59°20' E 018°05'0 0.0
2015-Jun-25 03:33N 59°20' E 018°05'0 0.0
2015-Jun-25 02:33N 59°20' E 018°05'0 0.0
2015-Jun-25 01:33N 59°20' E 018°05'0 0.0
2015-Jun-25 00:33N 59°20' E 018°05'0 0.0
2015-Jun-24 23:34N 59°20' E 018°05'0 0.0
2015-Jun-24 22:33N 59°20' E 018°05'0 0.0
2015-Jun-24 21:33N 59°20' E 018°05'0 0.0
2015-Jun-24 20:34N 59°20' E 018°05'0 0.0
2015-Jun-24 19:34N 59°20' E 018°05'0 0.0
2015-Jun-24 18:33N 59°20' E 018°05'1 0.1
2015-Jun-24 08:11N 59°19' E 018°07'1 2.3
2015-Jun-24 07:33N 59°20' E 018°05'  
Track history (hours):
 
Tides and Currents Weather Stations Pressure Air Temp Water Temp Dewpoint Dewpoint Depression Visibility Wind Speed Wind Dir Waves Ship Positions

Sjobris

Last reported at 2015-Jul-04 06:25 UTC. Time now 2015-Jul-04 15:18 UTC.
Position N 59°20' E 018°05'.

Length 38 m.

Type: Passenger vessel. MMSI: 265522700.

Date/timePositionNaut miles runAvg speedWind from/ knotsBaromVisibWave heightAir tempDewpointWater temp
2015-Jul-04 06:25N 59°20' E 018°05'0 0.0
2015-Jul-04 05:33N 59°20' E 018°05'0 0.0
2015-Jul-04 04:33N 59°20' E 018°05'0 0.0
2015-Jul-04 03:32N 59°20' E 018°05'0 0.0
2015-Jul-04 02:33N 59°20' E 018°05'0 0.0
2015-Jul-04 01:33N 59°20' E 018°05'0 0.0
2015-Jul-04 00:21N 59°20' E 018°05'0 0.0
2015-Jul-03 23:33N 59°20' E 018°05'0 0.0
2015-Jul-03 22:30N 59°20' E 018°05'0 0.0
2015-Jul-03 21:33N 59°20' E 018°05'0 0.0
2015-Jul-03 20:33N 59°20' E 018°05'0 0.0
2015-Jul-03 19:33N 59°20' E 018°05'0 0.4
2015-Jul-03 18:31N 59°19' E 018°05'1 0.1
2015-Jul-03 08:09N 59°19' E 018°07'1 1.9
2015-Jul-03 07:33N 59°20' E 018°05'1 0.1
2015-Jul-02 16:26N 59°19' E 018°07'2 2.6
2015-Jul-02 15:33N 59°20' E 018°11'3 0.4
2015-Jul-02 06:33N 59°20' E 018°05'0 0.0
2015-Jul-02 05:33N 59°20' E 018°05'0 0.0
2015-Jul-02 04:33N 59°20' E 018°05'0 0.0
2015-Jul-02 03:33N 59°20' E 018°05'0 0.0
2015-Jul-02 02:33N 59°20' E 018°05'0 0.0
2015-Jul-02 01:33N 59°20' E 018°05'0 0.0
2015-Jul-02 00:33N 59°20' E 018°05'0 0.0
2015-Jul-01 23:33N 59°20' E 018°05'0 0.0
2015-Jul-01 22:33N 59°20' E 018°05'0 0.0
2015-Jul-01 21:29N 59°20' E 018°05'0 0.0
2015-Jul-01 20:33N 59°20' E 018°05'0 0.0
2015-Jul-01 19:33N 59°20' E 018°05'0 0.4
2015-Jul-01 18:32N 59°19' E 018°05'1 0.1
2015-Jul-01 08:10N 59°19' E 018°07'1 1.3
2015-Jul-01 07:28N 59°19' E 018°05'2 0.1
2015-Jun-30 16:29N 59°19' E 018°09'2 1.7
2015-Jun-30 15:34N 59°19' E 018°05'0 0.0
2015-Jun-30 06:33N 59°20' E 018°05'0 0.5
2015-Jun-30 05:33N 59°20' E 018°05'0 0.0
2015-Jun-30 04:33N 59°20' E 018°05'0 0.0
2015-Jun-30 03:34N 59°20' E 018°05'0 0.0
2015-Jun-30 02:33N 59°20' E 018°05'0 0.0
2015-Jun-30 01:33N 59°20' E 018°05'0 0.0
2015-Jun-30 00:33N 59°20' E 018°05'0 0.0
2015-Jun-29 23:33N 59°20' E 018°05'0 0.0
2015-Jun-29 22:33N 59°20' E 018°05'0 0.0
2015-Jun-29 21:33N 59°20' E 018°05'0 0.0
2015-Jun-29 20:33N 59°20' E 018°05'0 0.0
2015-Jun-29 19:33N 59°20' E 018°05'1 0.5
2015-Jun-29 18:33N 59°19' E 018°05'1 0.1
2015-Jun-29 08:11N 59°19' E 018°07'1 1.7
2015-Jun-29 07:30N 59°19' E 018°05'0 0.0
2015-Jun-28 18:34N 59°20' E 018°05'0 0.0
2015-Jun-28 06:33N 59°20' E 018°05'0 0.0
2015-Jun-28 05:33N 59°20' E 018°05'0 0.0
2015-Jun-28 04:33N 59°20' E 018°05'0 0.0
2015-Jun-28 03:33N 59°20' E 018°05'0 0.0
2015-Jun-28 02:33N 59°20' E 018°05'0 0.0
2015-Jun-28 01:33N 59°20' E 018°05'0 0.0
2015-Jun-28 00:33N 59°20' E 018°05'0 0.0
2015-Jun-27 23:33N 59°20' E 018°05'0 0.0
2015-Jun-27 22:33N 59°20' E 018°05'0 0.0
2015-Jun-27 21:33N 59°20' E 018°05'0 0.0
2015-Jun-27 20:33N 59°20' E 018°05'0 0.0
2015-Jun-27 19:33N 59°20' E 018°05'0 0.0
2015-Jun-27 18:33N 59°20' E 018°05'0 0.0
2015-Jun-27 06:33N 59°20' E 018°05'0 0.0
2015-Jun-27 05:33N 59°20' E 018°05'0 0.0
2015-Jun-27 04:33N 59°20' E 018°05'0 0.0
2015-Jun-27 03:33N 59°20' E 018°05'0 0.0
2015-Jun-27 02:33N 59°20' E 018°05'0 0.0
2015-Jun-27 01:33N 59°20' E 018°05'0 0.0
2015-Jun-27 00:33N 59°20' E 018°05'0 0.0
2015-Jun-26 23:33N 59°20' E 018°05'0 0.0
2015-Jun-26 22:33N 59°20' E 018°05'0 0.0
2015-Jun-26 21:33N 59°20' E 018°05'0 0.0
2015-Jun-26 20:33N 59°20' E 018°05'0 0.0
2015-Jun-26 19:33N 59°20' E 018°05'0 0.0
2015-Jun-26 18:33N 59°20' E 018°05'1 0.1
2015-Jun-26 08:10N 59°19' E 018°07'1 2.2
2015-Jun-26 07:34N 59°20' E 018°04'2 0.1
2015-Jun-25 16:26N 59°19' E 018°07'1 1.5
2015-Jun-25 15:33N 59°19' E 018°05'3 0.4
2015-Jun-25 07:07N 59°20' E 018°11'3 5.9
2015-Jun-25 06:34N 59°20' E 018°05'0 0.0
2015-Jun-25 05:33N 59°20' E 018°05'0 0.0
2015-Jun-25 04:34N 59°20' E 018°05'0 0.0
2015-Jun-25 03:33N 59°20' E 018°05'0 0.0
2015-Jun-25 02:33N 59°20' E 018°05'0 0.0
2015-Jun-25 01:33N 59°20' E 018°05'0 0.0
2015-Jun-25 00:33N 59°20' E 018°05'0 0.0
2015-Jun-24 23:34N 59°20' E 018°05'0 0.0
2015-Jun-24 22:33N 59°20' E 018°05'0 0.0
2015-Jun-24 21:33N 59°20' E 018°05'0 0.0
2015-Jun-24 20:34N 59°20' E 018°05'0 0.0
2015-Jun-24 19:34N 59°20' E 018°05'0 0.0
2015-Jun-24 18:33N 59°20' E 018°05'1 0.1
2015-Jun-24 08:11N 59°19' E 018°07'1 2.3
2015-Jun-24 07:33N 59°20' E 018°05'  

Dump ship's entire track history